Bombala, Australia
Current Conditions -  °F | °C
As of 9:00 PM on Saturday 01 Nov 2014 (Local Time) from YMER Reporting Station
Overcast Overcast  
Wind Chill: 52°   Ceiling: 7900
Heat Index: 52°   Visibility: 6mi
Dew Point: 45°   Wind: 14mph
Humidity: 76%   Direction: 230°SW
Pressure: 29.8"   Gusts: NA
Location:  36.91°S, 149.24°E
Report Text: YMER 011000Z AUTO 23012KT 9999 // BKN079 OVC091 11/07 Q1009
Loading
Personal Weather Stations






























Interactive Weather Map
Tropical Storm Tracking
New forecast layout! Learn more

10-Day Weather Forecast

Advertisements
Track Severe Weather on mobile